Time;durP1;ratioP1;P1;durP2;ratioP2;P2;SDS_P1;SDS_P2;PMS_P1;PMS_P2;Temp;Humidity;BMP_temperature;BMP_pressure;BME280_temperature;BME280_humidity;BME280_pressure;Samples;Min_cycle;Max_cycle;Signal;HPM_P1;HPM_P2
2022/11/21 00:00:16;;;;;;;74.13;38.15;;;0.60;99.90;;;;;;5055667;28;20072;-81
2022/11/21 00:02:42;;;;;;;60.03;36.13;;;0.60;99.90;;;;;;5035036;28;20040;-80
2022/11/21 00:05:08;;;;;;;72.38;39.42;;;0.60;99.90;;;;;;5038152;28;20411;-80
2022/11/21 00:07:33;;;;;;;57.97;38.47;;;0.60;99.90;;;;;;5052573;28;20051;-80
2022/11/21 00:09:59;;;;;;;54.13;36.35;;;0.60;99.90;;;;;;5038814;28;20033;-81
2022/11/21 00:12:25;;;;;;;53.70;35.42;;;0.60;99.90;;;;;;5035073;28;20038;-82
2022/11/21 00:14:50;;;;;;;77.45;42.80;;;0.60;99.90;;;;;;5038568;28;20045;-80
2022/11/21 00:17:16;;;;;;;86.35;44.55;;;0.70;99.90;;;;;;5037878;28;20407;-80
2022/11/21 00:19:42;;;;;;;67.30;41.25;;;0.60;99.90;;;;;;5035942;28;20648;-80
2022/11/21 00:22:08;;;;;;;61.92;40.75;;;0.70;99.90;;;;;;5033291;28;20037;-80
2022/11/21 00:24:34;;;;;;;62.88;40.35;;;0.60;99.90;;;;;;5034204;28;20045;-80
2022/11/21 00:26:59;;;;;;;75.50;41.78;;;0.70;99.90;;;;;;5035570;28;20057;-80
2022/11/21 00:29:25;;;;;;;74.82;40.15;;;0.70;99.90;;;;;;5044855;28;20498;-80
2022/11/21 00:31:50;;;;;;;68.07;40.53;;;0.70;99.90;;;;;;5033914;28;20071;-80
2022/11/21 00:34:16;;;;;;;60.15;38.47;;;0.70;99.90;;;;;;5033193;28;20044;-80
2022/11/21 00:36:41;;;;;;;62.88;40.10;;;0.60;99.90;;;;;;5035943;28;20033;-81
2022/11/21 00:39:07;;;;;;;64.70;41.55;;;0.60;99.90;;;;;;5036632;28;20136;-81
2022/11/21 00:41:33;;;;;;;60.08;40.33;;;0.70;99.90;;;;;;5036271;28;20037;-81
2022/11/21 00:43:59;;;;;;;55.13;38.42;;;0.70;99.90;;;;;;5036860;28;20090;-81
2022/11/21 00:46:24;;;;;;;57.15;37.78;;;0.70;99.90;;;;;;5051943;28;20127;-81
2022/11/21 00:48:50;;;;;;;60.95;38.75;;;0.60;99.90;;;;;;5037624;28;20059;-79
2022/11/21 00:51:16;;;;;;;73.85;41.08;;;0.70;99.90;;;;;;5038944;28;20491;-80
2022/11/21 00:53:41;;;;;;;55.47;37.95;;;0.70;99.90;;;;;;5036523;28;20422;-80
2022/11/21 00:56:07;;;;;;;56.25;38.65;;;0.70;99.90;;;;;;5031630;28;20041;-80
2022/11/21 00:58:36;;;;;;;57.38;38.40;;;0.60;99.90;;;;;;5052160;28;20128;-80
2022/11/21 01:01:03;;;;;;;56.33;37.33;;;0.60;99.90;;;;;;5038792;28;20120;-81
2022/11/21 01:03:32;;;;;;;119.18;45.15;;;0.70;99.90;;;;;;5036741;28;20124;-81
2022/11/21 01:06:06;;;;;;;63.38;39.00;;;0.70;99.90;;;;;;5052147;28;20059;-81
2022/11/21 01:08:34;;;;;;;60.20;38.08;;;0.70;99.90;;;;;;5056317;28;20041;-80
2022/11/21 01:11:08;;;;;;;54.30;36.92;;;0.70;99.90;;;;;;5054531;28;20052;-79
2022/11/21 01:13:34;;;;;;;84.65;37.90;;;0.70;99.90;;;;;;5040087;28;20087;-79
2022/11/21 01:16:04;;;;;;;77.38;40.15;;;0.70;99.90;;;;;;5039426;28;21608;-79
2022/11/21 01:18:29;;;;;;;54.65;36.10;;;0.70;99.90;;;;;;5038140;28;20470;-79
2022/11/21 01:21:02;;;;;;;67.45;39.83;;;0.70;99.90;;;;;;5039430;28;20058;-79
2022/11/21 01:23:28;;;;;;;;;;;0.70;99.90;;;;;;5055698;28;20040;-79
2022/11/21 01:25:53;;;;;;;58.97;38.30;;;0.70;99.90;;;;;;5055950;28;19920;-80
2022/11/21 01:28:19;;;;;;;51.25;36.42;;;0.70;99.90;;;;;;5037741;28;20064;-80
2022/11/21 01:30:45;;;;;;;70.47;37.30;;;0.60;99.90;;;;;;5035945;28;20133;-79
2022/11/21 01:33:10;;;;;;;84.97;41.40;;;0.60;99.90;;;;;;5038459;28;20043;-79
2022/11/21 01:35:36;;;;;;;82.90;41.92;;;0.70;99.90;;;;;;5047583;28;20037;-80
2022/11/21 01:38:02;;;;;;;66.85;37.70;;;0.70;99.90;;;;;;5053648;28;20071;-79
2022/11/21 01:40:27;;;;;;;58.40;36.58;;;0.60;99.90;;;;;;5051581;28;20087;-79
2022/11/21 01:42:58;;;;;;;56.63;35.95;;;0.70;99.90;;;;;;5037144;28;20072;-79
2022/11/21 01:45:53;;;;;;;49.95;35.20;;;0.70;99.90;;;;;;5031065;28;20136;-79
2022/11/21 01:48:21;;;;;;;75.05;41.88;;;0.70;99.90;;;;;;5053897;28;20046;-80
2022/11/21 01:50:47;;;;;;;54.60;36.72;;;0.70;99.90;;;;;;5053926;28;20079;-79
2022/11/21 01:53:13;;;;;;;76.22;41.60;;;0.70;99.90;;;;;;5038654;28;20037;-79
2022/11/21 01:55:38;;;;;;;63.45;38.38;;;0.70;99.90;;;;;;5053424;28;20041;-80
2022/11/21 01:58:04;;;;;;;72.97;40.22;;;0.70;99.90;;;;;;5034907;28;20087;-79
2022/11/21 02:00:37;;;;;;;67.85;37.05;;;0.70;99.90;;;;;;5035770;28;20041;-79
2022/11/21 02:03:09;;;;;;;72.03;39.63;;;0.70;99.90;;;;;;5037919;28;20124;-79
2022/11/21 02:05:36;;;;;;;80.10;41.30;;;0.70;99.90;;;;;;5054383;28;20056;-80
2022/11/21 02:08:32;;;;;;;55.92;37.25;;;0.70;99.90;;;;;;5038441;28;20443;-79
2022/11/21 02:11:10;;;;;;;54.47;34.83;;;0.70;99.90;;;;;;5052739;28;20053;-80
2022/11/21 02:13:36;;;;;;;48.50;33.80;;;0.70;99.90;;;;;;5037431;28;20479;-80
2022/11/21 02:16:01;;;;;;;47.30;32.30;;;0.70;99.90;;;;;;5070621;28;20036;-80
2022/11/21 02:18:27;;;;;;;62.70;38.08;;;0.70;99.90;;;;;;5051138;28;20041;-79
2022/11/21 02:21:05;;;;;;;72.22;40.10;;;0.70;99.90;;;;;;5032585;28;20055;-80
2022/11/21 02:23:40;;;;;;;58.55;38.33;;;0.70;99.90;;;;;;5033707;28;20059;-80
2022/11/21 02:26:09;;;;;;;85.47;42.58;;;0.70;99.90;;;;;;5034290;28;20467;-79
2022/11/21 02:28:35;;;;;;;70.57;39.33;;;0.60;99.90;;;;;;5035954;28;20036;-79
2022/11/21 02:31:01;;;;;;;82.28;40.92;;;0.60;99.90;;;;;;5034098;28;20055;-81
2022/11/21 02:33:27;;;;;;;114.80;43.60;;;0.60;99.90;;;;;;5034070;28;20041;-80
2022/11/21 02:35:59;;;;;;;67.22;39.55;;;0.60;99.90;;;;;;5030224;28;20041;-80
2022/11/21 02:38:33;;;;;;;69.32;37.60;;;0.60;99.90;;;;;;5032099;28;20040;-80
2022/11/21 02:41:15;;;;;;;56.08;36.10;;;0.60;99.90;;;;;;5031996;28;20033;-81
2022/11/21 02:44:02;;;;;;;113.07;41.75;;;0.60;99.90;;;;;;5025905;28;20392;-80
2022/11/21 02:46:28;;;;;;;203.13;52.17;;;0.60;99.90;;;;;;5048532;28;20069;-80
2022/11/21 02:48:56;;;;;;;69.50;40.40;;;0.60;99.90;;;;;;5034038;28;20041;-79
2022/11/21 02:51:21;;;;;;;54.35;35.30;;;0.60;99.90;;;;;;5033099;28;20033;-80
2022/11/21 02:53:47;;;;;;;67.68;39.92;;;0.60;99.90;;;;;;5028874;28;20496;-80
2022/11/21 02:56:12;;;;;;;58.03;35.85;;;0.60;99.90;;;;;;5023453;28;20033;-80
2022/11/21 02:58:38;;;;;;;66.05;38.30;;;0.60;99.90;;;;;;5050255;28;20033;-79
2022/11/21 03:01:03;;;;;;;52.20;35.80;;;0.60;99.90;;;;;;5050310;28;20047;-80
2022/11/21 03:03:29;;;;;;;60.90;36.58;;;0.60;99.90;;;;;;5034108;28;20048;-80
2022/11/21 03:05:55;;;;;;;65.45;37.92;;;0.60;99.90;;;;;;5057774;23;20056;-75
2022/11/21 03:08:21;;;;;;;58.25;37.50;;;0.60;99.90;;;;;;5032572;28;20041;-75
2022/11/21 03:10:46;;;;;;;70.47;38.55;;;0.60;99.90;;;;;;5034999;28;20392;-75
2022/11/21 03:13:12;;;;;;;89.75;40.67;;;0.70;99.90;;;;;;5037784;28;20056;-75
2022/11/21 03:15:38;;;;;;;63.80;38.70;;;0.60;99.90;;;;;;5021395;28;20033;-75
2022/11/21 03:18:03;;;;;;;61.42;40.45;;;0.60;99.90;;;;;;5017408;28;20113;-75
2022/11/21 03:20:33;;;;;;;73.22;40.95;;;0.60;99.90;;;;;;5000683;28;20037;-75
2022/11/21 03:22:59;;;;;;;84.82;42.85;;;0.60;99.90;;;;;;5016694;28;20033;-75
2022/11/21 03:25:25;;;;;;;57.47;37.38;;;0.60;99.90;;;;;;5011462;28;20048;-75
2022/11/21 03:27:52;;;;;;;57.25;36.65;;;0.50;99.90;;;;;;4996553;28;20104;-75
2022/11/21 03:30:19;;;;;;;62.45;37.10;;;0.50;99.90;;;;;;4997363;28;20506;-75
2022/11/21 03:32:44;;;;;;;54.92;33.83;;;0.40;99.90;;;;;;4998089;28;20391;-75
2022/11/21 03:35:10;;;;;;;84.38;37.55;;;0.30;99.90;;;;;;5005628;28;20048;-75
2022/11/21 03:37:35;;;;;;;47.55;31.17;;;0.30;99.90;;;;;;5016697;28;20034;-75
2022/11/21 03:40:01;;;;;;;66.63;36.67;;;0.20;99.90;;;;;;5017050;28;20125;-75
2022/11/21 03:42:26;;;;;;;104.68;43.58;;;0.20;99.90;;;;;;4999734;28;20116;-75
2022/11/21 03:44:52;;;;;;;57.03;37.53;;;0.10;99.90;;;;;;5015478;28;20042;-74
2022/11/21 03:47:17;;;;;;;55.25;38.33;;;0.10;99.90;;;;;;5016183;28;20059;-74
2022/11/21 03:49:43;;;;;;;115.72;47.85;;;0.00;99.90;;;;;;5017362;28;20041;-75
2022/11/21 03:52:08;;;;;;;116.00;47.20;;;0.00;99.90;;;;;;5012397;28;20042;-75
2022/11/21 03:54:34;;;;;;;58.03;37.20;;;0.00;99.90;;;;;;5030543;28;20038;-75
2022/11/21 03:56:59;;;;;;;81.35;43.13;;;0.00;99.90;;;;;;5016107;28;20045;-75
2022/11/21 03:59:25;;;;;;;86.30;42.78;;;0.00;99.90;;;;;;5016043;28;20447;-75
2022/11/21 04:01:51;;;;;;;99.57;44.00;;;0.10;99.90;;;;;;5016144;28;20128;-74
2022/11/21 04:04:16;;;;;;;137.80;50.60;;;0.10;99.90;;;;;;4999322;28;20131;-74
2022/11/21 04:06:42;;;;;;;102.43;44.45;;;0.10;99.90;;;;;;5016232;28;20037;-74
2022/11/21 04:09:08;;;;;;;66.88;40.20;;;0.10;99.90;;;;;;5016686;28;20033;-74
2022/11/21 04:11:33;;;;;;;76.38;40.63;;;0.10;99.90;;;;;;4999853;28;20103;-74
2022/11/21 04:13:59;;;;;;;82.15;39.75;;;0.10;99.90;;;;;;5015896;28;20048;-75
2022/11/21 04:16:24;;;;;;;82.72;40.13;;;0.00;99.90;;;;;;5016470;28;20136;-74
2022/11/21 04:18:50;;;;;;;93.43;43.78;;;0.00;99.90;;;;;;4999975;28;20068;-74
2022/11/21 04:21:15;;;;;;;76.13;42.83;;;0.00;99.90;;;;;;5014923;28;20472;-74
2022/11/21 04:23:41;;;;;;;87.93;44.42;;;-0.10;99.90;;;;;;5016005;28;20040;-74
2022/11/21 04:26:06;;;;;;;94.63;45.55;;;-0.10;99.90;;;;;;4996197;28;20046;-74
2022/11/21 04:28:32;;;;;;;79.47;42.05;;;-0.10;99.90;;;;;;5015233;28;20049;-74
2022/11/21 04:31:02;;;;;;;89.22;41.80;;;-0.10;99.90;;;;;;5015304;28;20041;-74
2022/11/21 04:33:27;;;;;;;56.60;37.40;;;-0.10;99.90;;;;;;5014551;28;20041;-74
2022/11/21 04:35:53;;;;;;;96.68;45.53;;;-0.20;99.90;;;;;;4999009;28;20048;-74
2022/11/21 04:38:18;;;;;;;101.07;45.08;;;-0.30;99.90;;;;;;5016224;28;20045;-74
2022/11/21 04:40:44;;;;;;;91.82;43.55;;;-0.30;99.90;;;;;;4999442;28;20507;-74
2022/11/21 04:43:10;;;;;;;70.55;42.15;;;-0.30;99.90;;;;;;5014701;28;20037;-74
2022/11/21 04:45:35;;;;;;;70.20;41.28;;;-0.30;99.90;;;;;;5014777;28;20037;-74
2022/11/21 04:48:01;;;;;;;66.93;41.78;;;-0.30;99.90;;;;;;5015700;28;20514;-74
2022/11/21 04:50:26;;;;;;;72.70;43.25;;;-0.40;99.90;;;;;;5015619;28;20049;-74
2022/11/21 04:52:54;;;;;;;78.00;42.72;;;-0.40;99.90;;;;;;4999543;28;20056;-74
2022/11/21 04:55:21;;;;;;;63.75;40.38;;;-0.40;99.90;;;;;;5014806;28;20080;-74
2022/11/21 04:57:47;;;;;;;63.22;39.67;;;-0.40;99.90;;;;;;5013602;28;20041;-74
2022/11/21 05:00:14;;;;;;;35.83;19.10;;;-0.50;99.90;;;;;;5015929;28;20033;-74
2022/11/21 05:02:40;;;;;;;36.15;18.70;;;-0.50;99.90;;;;;;5015026;28;20049;-74
2022/11/21 05:05:06;;;;;;;34.88;17.90;;;-0.50;99.90;;;;;;4998028;28;20033;-74
2022/11/21 05:07:31;;;;;;;69.60;41.55;;;-0.60;99.90;;;;;;5014447;28;20128;-74
2022/11/21 05:09:57;;;;;;;69.40;41.25;;;-0.60;99.90;;;;;;5015689;28;20124;-74
2022/11/21 05:15:07;;;;;;;36.40;17.98;;;-0.70;99.90;;;;;;5031019;28;20049;-74
2022/11/21 05:17:32;;;;;;;65.25;39.40;;;-0.70;99.90;;;;;;5014232;28;20041;-74
2022/11/21 05:19:58;;;;;;;68.40;40.88;;;-0.70;99.90;;;;;;5015538;28;20108;-75
2022/11/21 05:22:23;;;;;;;64.05;39.92;;;-0.70;99.90;;;;;;5014718;28;20037;-74
2022/11/21 05:24:49;;;;;;;34.90;20.25;;;-0.80;99.90;;;;;;5012580;28;20037;-74
2022/11/21 05:27:14;;;;;;;38.33;19.02;;;-0.80;99.90;;;;;;4998768;28;20037;-74
2022/11/21 05:29:40;;;;;;;53.58;36.95;;;-0.80;99.90;;;;;;4995685;28;20439;-74
2022/11/21 05:32:05;;;;;;;55.47;37.15;;;-0.80;99.90;;;;;;5007685;28;20510;-74
2022/11/21 05:34:31;;;;;;;27.58;16.80;;;-0.90;99.90;;;;;;5012700;28;20040;-74
2022/11/21 05:36:59;;;;;;;32.60;18.48;;;-0.90;99.90;;;;;;5014835;28;20128;-74
2022/11/21 05:39:26;;;;;;;28.55;16.70;;;-1.00;99.90;;;;;;4997260;28;20060;-74
2022/11/21 05:41:52;;;;;;;29.40;16.52;;;-1.00;99.90;;;;;;5008619;28;20415;-74
2022/11/21 05:44:17;;;;;;;50.30;33.35;;;-1.00;99.90;;;;;;5013902;28;20036;-75
2022/11/21 05:46:44;;;;;;;57.03;38.08;;;-1.10;99.90;;;;;;4998675;28;20049;-74
2022/11/21 05:49:10;;;;;;;58.40;38.80;;;-1.10;99.90;;;;;;5011180;28;20068;-74
2022/11/21 05:51:36;;;;;;;59.78;38.25;;;-1.10;99.90;;;;;;5013602;28;20041;-74
2022/11/21 05:54:02;;;;;;;59.90;39.63;;;-1.10;99.90;;;;;;5014119;28;20033;-74
2022/11/21 05:56:27;;;;;;;30.83;18.33;;;-1.10;99.90;;;;;;4990996;28;20038;-74
2022/11/21 05:58:54;;;;;;;31.95;17.77;;;-1.10;99.90;;;;;;5014234;28;20087;-75
2022/11/21 06:04:04;;;;;;;30.25;17.55;;;-1.20;99.90;;;;;;5030419;28;20129;-74
2022/11/21 06:06:29;;;;;;;29.42;17.58;;;-1.20;99.90;;;;;;5000424;28;20124;-75
2022/11/21 06:08:55;;;;;;;51.85;36.13;;;-1.20;99.90;;;;;;5009823;28;20048;-73
2022/11/21 06:11:21;;;;;;;33.83;16.33;;;-1.30;99.90;;;;;;5010120;28;20128;-73
2022/11/21 06:13:46;;;;;;;29.17;16.42;;;-1.30;99.90;;;;;;5014113;28;20092;-76
2022/11/21 06:16:14;;;;;;;48.83;33.80;;;-1.40;99.90;;;;;;5009135;28;20133;-75
2022/11/21 06:18:42;;;;;;;46.95;33.72;;;-1.40;99.90;;;;;;5002448;28;20030;-75
2022/11/21 06:21:12;;;;;;;50.28;34.55;;;-1.50;99.90;;;;;;4998061;28;20380;-76
2022/11/21 06:23:38;;;;;;;25.17;15.38;;;-1.50;99.90;;;;;;5012288;28;20499;-76
2022/11/21 06:26:06;;;;;;;28.55;15.55;;;-1.50;99.90;;;;;;5011130;28;20088;-78
2022/11/21 06:28:35;;;;;;;24.70;14.57;;;-1.60;99.90;;;;;;5013300;28;20037;-74
2022/11/21 06:31:11;;;;;;;30.13;15.95;;;-1.60;99.90;;;;;;5013356;28;20045;-74
2022/11/21 06:33:37;;;;;;;49.97;35.03;;;-1.70;99.90;;;;;;4997553;28;20041;-75
2022/11/21 06:36:05;;;;;;;32.42;16.67;;;-1.70;99.90;;;;;;4995650;28;20037;-74
2022/11/21 06:38:31;;;;;;;29.63;16.55;;;-1.70;99.90;;;;;;5007681;28;20041;-74
2022/11/21 06:40:57;;;;;;;30.08;16.02;;;-1.70;99.90;;;;;;5014004;28;20044;-74
2022/11/21 06:43:22;;;;;;;30.75;16.67;;;-1.70;99.90;;;;;;5013115;28;20033;-73
2022/11/21 06:45:48;;;;;;;39.33;19.55;;;-1.70;99.90;;;;;;4997353;28;20045;-76
2022/11/21 06:48:13;;;;;;;64.00;44.53;;;-1.70;99.90;;;;;;5013707;28;20479;-73
2022/11/21 06:50:39;;;;;;;42.70;19.98;;;-1.70;99.90;;;;;;5013674;28;20490;-73
2022/11/21 06:53:05;;;;;;;34.22;19.73;;;-1.70;99.90;;;;;;5009048;28;20038;-73
2022/11/21 06:55:31;;;;;;;39.17;20.27;;;-1.60;99.90;;;;;;4996012;28;20067;-75
2022/11/21 06:57:58;;;;;;;38.78;20.55;;;-1.60;99.90;;;;;;4996457;28;20042;-75
2022/11/21 07:00:26;;;;;;;74.20;46.38;;;-1.60;99.90;;;;;;4994746;28;20373;-76
2022/11/21 07:02:52;;;;;;;95.72;52.58;;;-1.60;99.90;;;;;;5012385;28;20033;-75
2022/11/21 07:05:18;;;;;;;49.13;22.30;;;-1.60;99.90;;;;;;5009626;28;20044;-75
2022/11/21 07:07:43;;;;;;;41.50;21.20;;;-1.50;99.90;;;;;;5012792;28;20095;-75
2022/11/21 07:10:09;;;;;;;48.83;23.05;;;-1.50;99.90;;;;;;5028563;28;20480;-75
2022/11/21 07:15:19;;;;;;;111.15;53.15;;;-1.40;99.90;;;;;;5010184;28;20053;-77
2022/11/21 07:17:44;;;;;;;66.78;22.25;;;-1.30;99.90;;;;;;4996222;28;20041;-77
2022/11/21 07:20:11;;;;;;;63.38;22.30;;;-1.30;99.90;;;;;;5013730;28;20481;-77
2022/11/21 07:22:36;;;;;;;54.58;21.48;;;-1.30;99.90;;;;;;5013565;28;20055;-77
2022/11/21 07:25:02;;;;;;;141.23;52.63;;;-1.20;99.90;;;;;;4997435;28;20038;-77
2022/11/21 07:27:28;;;;;;;68.25;22.65;;;-1.20;99.90;;;;;;5013464;28;20036;-77
2022/11/21 07:29:56;;;;;;;82.78;23.05;;;-1.20;99.90;;;;;;5013707;28;20033;-77
2022/11/21 07:32:23;;;;;;;144.05;51.13;;;-1.10;99.90;;;;;;5013650;28;20445;-77
2022/11/21 07:34:48;;;;;;;125.38;51.03;;;-1.10;99.90;;;;;;5013554;28;20045;-77
2022/11/21 07:37:14;;;;;;;148.18;53.08;;;-1.00;99.90;;;;;;5013416;28;20112;-77
2022/11/21 07:39:39;;;;;;;72.68;19.73;;;-0.90;99.90;;;;;;5013526;28;20045;-78
2022/11/21 07:42:05;;;;;;;62.40;19.00;;;-0.90;99.90;;;;;;5014008;28;20428;-78
2022/11/21 07:44:30;;;;;;;167.35;51.47;;;-0.90;99.90;;;;;;5013693;28;20042;-78
2022/11/21 07:46:56;;;;;;;180.52;53.53;;;-0.90;99.90;;;;;;5013326;28;20128;-77
2022/11/21 07:49:21;;;;;;;85.80;21.25;;;-0.80;99.90;;;;;;5013568;28;20083;-77
2022/11/21 07:51:47;;;;;;;69.38;19.10;;;-0.80;99.90;;;;;;5013584;28;20045;-77
2022/11/21 07:54:12;;;;;;;140.02;48.90;;;-0.70;99.90;;;;;;4996843;28;20411;-77
2022/11/21 07:56:38;;;;;;;139.48;48.25;;;-0.70;99.90;;;;;;5013807;28;20044;-77
2022/11/21 07:59:03;;;;;;;186.82;52.95;;;-0.70;99.90;;;;;;5000757;28;20041;-77
2022/11/21 08:01:29;;;;;;;161.18;49.42;;;-0.70;99.90;;;;;;5017030;28;20034;-77
2022/11/21 08:03:54;;;;;;;166.38;51.63;;;-0.60;99.90;;;;;;5000722;28;20080;-77
2022/11/21 08:06:20;;;;;;;157.25;48.63;;;-0.50;99.90;;;;;;5000920;28;20140;-77
2022/11/21 08:08:47;;;;;;;137.23;46.72;;;-0.50;99.90;;;;;;5016633;28;20128;-77
2022/11/21 08:11:12;;;;;;;174.10;47.50;;;-0.40;99.90;;;;;;5000809;28;20037;-78
2022/11/21 08:13:38;;;;;;;134.30;44.67;;;-0.40;99.90;;;;;;5016854;28;20088;-77
2022/11/21 08:16:03;;;;;;;136.02;43.28;;;-0.40;99.90;;;;;;5016913;28;20566;-78
2022/11/21 08:18:29;;;;;;;69.28;17.13;;;-0.30;99.90;;;;;;5016617;28;20072;-78
2022/11/21 08:20:55;;;;;;;158.88;45.90;;;-0.30;99.90;;;;;;5016671;28;20033;-78
2022/11/21 08:23:20;;;;;;;141.07;43.03;;;-0.30;99.90;;;;;;5016499;28;20096;-78
2022/11/21 08:25:46;;;;;;;187.45;45.33;;;-0.20;99.90;;;;;;5000343;28;20106;-78
2022/11/21 08:28:12;;;;;;;169.27;44.83;;;-0.20;99.90;;;;;;5016239;28;20048;-78
2022/11/21 08:30:38;;;;;;;183.35;46.72;;;-0.10;99.90;;;;;;5016443;28;20120;-78
2022/11/21 08:33:04;;;;;;;150.77;42.65;;;0.00;99.90;;;;;;5016442;28;20503;-78
2022/11/21 08:35:30;;;;;;;151.38;41.38;;;0.00;99.90;;;;;;5016260;28;20420;-78
2022/11/21 08:38:00;;;;;;;119.95;42.63;;;0.00;99.90;;;;;;5015970;28;20033;-78
2022/11/21 08:40:27;;;;;;;158.13;43.85;;;0.10;99.90;;;;;;5016318;28;20042;-77
2022/11/21 08:43:07;;;;;;;114.45;39.83;;;0.10;99.90;;;;;;5016522;28;20395;-78
2022/11/21 08:45:34;;;;;;;89.85;36.28;;;0.10;99.90;;;;;;5016491;28;20049;-78
2022/11/21 08:48:00;;;;;;;124.47;39.70;;;0.10;99.90;;;;;;5015969;28;20041;-78
2022/11/21 08:50:27;;;;;;;113.60;38.35;;;0.20;99.90;;;;;;5016096;28;20102;-78
2022/11/21 08:52:58;;;;;;;129.60;37.95;;;0.20;99.90;;;;;;5016078;28;20049;-78
2022/11/21 08:55:23;;;;;;;149.15;39.75;;;0.30;99.90;;;;;;5015939;28;20403;-77
2022/11/21 08:57:49;;;;;;;116.18;38.85;;;0.30;99.90;;;;;;5016038;28;20037;-77
2022/11/21 09:00:15;;;;;;;79.57;34.13;;;0.40;99.90;;;;;;5015950;28;20521;-77
2022/11/21 09:02:40;;;;;;;89.47;34.05;;;0.30;99.90;;;;;;5016170;28;20038;-78
2022/11/21 09:05:07;;;;;;;95.95;35.63;;;0.50;99.90;;;;;;5036886;22;20145;-78
2022/11/21 09:07:32;;;;;;;91.63;34.67;;;0.40;99.90;;;;;;4996427;28;20037;-79
2022/11/21 09:09:58;;;;;;;72.47;33.00;;;0.50;99.90;;;;;;4996980;28;20407;-79
2022/11/21 09:12:23;;;;;;;76.95;31.33;;;0.50;99.90;;;;;;5013164;28;20491;-78
2022/11/21 09:20:17;;;;;;;82.53;32.20;;;0.60;99.90;;;;;;5013206;28;20057;-78
2022/11/21 09:22:43;;;;;;;52.33;27.50;;;0.60;99.90;;;;;;4996729;28;20045;-78
2022/11/21 09:25:08;;;;;;;56.67;29.40;;;0.70;99.90;;;;;;5013188;28;20052;-78
2022/11/21 09:27:34;;;;;;;80.05;32.30;;;0.70;99.90;;;;;;5012969;28;20038;-78
2022/11/21 09:29:59;;;;;;;72.78;30.88;;;0.70;99.90;;;;;;4996932;28;20121;-78
2022/11/21 09:32:25;;;;;;;76.55;30.45;;;0.80;99.90;;;;;;5012970;28;20045;-78
2022/11/21 09:34:50;;;;;;;63.30;29.75;;;0.80;99.90;;;;;;5013098;28;20049;-78
2022/11/21 09:37:16;;;;;;;68.00;30.45;;;0.90;99.90;;;;;;5012654;28;20034;-78
2022/11/21 09:39:41;;;;;;;63.25;29.35;;;0.90;99.90;;;;;;5012941;28;20040;-78
2022/11/21 09:42:35;;;;;;;69.03;30.52;;;1.00;99.90;;;;;;5013256;28;20045;-78
2022/11/21 09:45:46;;;;;;;68.28;30.35;;;1.00;99.90;;;;;;4996531;28;20049;-78
2022/11/21 09:48:30;;;;;;;57.75;28.30;;;1.10;99.90;;;;;;5008836;28;20076;-78
2022/11/21 09:51:01;;;;;;;70.20;29.95;;;1.10;99.90;;;;;;5012870;28;20452;-78
2022/11/21 09:53:38;;;;;;;46.65;27.23;;;1.20;99.90;;;;;;5012789;28;20088;-78
2022/11/21 09:56:16;;;;;;;56.85;28.50;;;1.20;99.90;;;;;;5012959;28;20403;-78
2022/11/21 09:58:47;;;;;;;49.47;27.70;;;1.30;99.90;;;;;;5012633;28;20037;-78
2022/11/21 10:01:15;;;;;;;46.85;26.55;;;1.30;99.90;;;;;;5012855;28;20038;-78
2022/11/21 10:03:51;;;;;;;41.58;25.08;;;1.40;99.90;;;;;;4996252;28;20124;-78
2022/11/21 10:06:23;;;;;;;37.35;23.75;;;1.40;99.90;;;;;;4996059;28;20038;-78
2022/11/21 10:09:08;;;;;;;40.95;24.25;;;1.50;99.90;;;;;;4996156;28;20042;-78
2022/11/21 10:14:57;;;;;;;40.38;24.85;;;1.50;99.90;;;;;;4969264;28;20412;-78
2022/11/21 10:17:50;;;;;;;39.08;24.92;;;1.50;99.90;;;;;;4996482;28;20053;-78
2022/11/21 10:20:48;;;;;;;47.00;27.67;;;1.60;99.90;;;;;;5012548;28;20088;-78
2022/11/21 10:23:44;;;;;;;36.67;24.52;;;1.60;99.90;;;;;;5013359;28;20050;-79
2022/11/21 10:26:10;;;;;;;38.13;24.48;;;1.60;99.90;;;;;;5014280;28;20080;-78
2022/11/21 10:29:05;;;;;;;35.60;24.33;;;1.60;99.90;;;;;;5014444;28;20038;-78
2022/11/21 10:31:36;;;;;;;41.63;24.52;;;1.70;99.90;;;;;;4997839;28;20046;-78
2022/11/21 10:34:08;;;;;;;36.25;24.63;;;1.70;99.90;;;;;;4999214;28;20048;-78
2022/11/21 10:36:38;;;;;;;36.55;24.63;;;1.70;99.90;;;;;;5016054;28;20041;-79
2022/11/21 10:39:12;;;;;;;37.45;24.27;;;1.70;99.90;;;;;;4999911;28;20102;-79
2022/11/21 10:41:49;;;;;;;33.22;24.08;;;1.80;99.90;;;;;;5016270;28;20042;-78
2022/11/21 10:47:32;;;;;;;41.22;24.65;;;1.70;99.90;;;;;;5016410;28;20057;-79
2022/11/21 10:50:20;;;;;;;35.08;24.45;;;1.70;99.90;;;;;;5017208;28;20050;-78
2022/11/21 10:52:53;;;;;;;37.92;25.10;;;1.70;99.90;;;;;;5017770;28;20049;-79
2022/11/21 10:55:18;;;;;;;43.60;25.20;;;1.80;99.90;;;;;;5017378;28;20064;-78
2022/11/21 10:57:53;;;;;;;44.20;24.83;;;1.80;99.90;;;;;;5017514;28;20033;-78
2022/11/21 11:00:26;;;;;;;40.78;25.70;;;1.80;99.90;;;;;;5017985;28;20053;-78
2022/11/21 11:03:05;;;;;;;37.97;24.52;;;1.90;99.90;;;;;;5017592;28;20050;-78
2022/11/21 11:05:36;;;;;;;43.03;25.73;;;1.90;99.90;;;;;;5017587;28;20057;-78
2022/11/21 11:08:08;;;;;;;34.72;24.45;;;2.00;99.90;;;;;;5018684;28;20527;-78
2022/11/21 11:10:36;;;;;;;37.80;24.98;;;2.00;99.90;;;;;;5018189;28;20519;-78
2022/11/21 11:16:06;;;;;;;39.88;25.23;;;2.00;99.90;;;;;;5018042;28;20053;-78
2022/11/21 11:18:38;;;;;;;43.42;25.77;;;2.10;99.90;;;;;;5018233;28;20176;-78
2022/11/21 11:21:13;;;;;;;37.08;24.08;;;2.10;99.90;;;;;;5001533;28;20038;-78
2022/11/21 11:23:38;;;;;;;50.85;26.55;;;2.20;99.90;;;;;;5016666;28;20121;-78
2022/11/21 11:26:22;;;;;;;41.28;24.45;;;2.20;99.90;;;;;;5017363;28;20480;-78
2022/11/21 11:28:48;;;;;;;34.28;23.63;;;2.20;99.90;;;;;;5016608;28;20037;-78
2022/11/21 11:31:14;;;;;;;39.15;27.45;;;2.20;99.90;;;;;;5019780;28;20045;-79
2022/11/21 11:33:49;;;;;;;54.30;27.10;;;2.20;99.90;;;;;;5007832;28;20434;-78
2022/11/21 11:36:38;;;;;;;39.58;25.67;;;2.20;99.90;;;;;;5007916;28;20126;-78
2022/11/21 11:39:33;;;;;;;50.33;30.90;;;2.20;99.90;;;;;;5024646;28;20103;-79
2022/11/21 11:48:18;;;;;;;41.30;27.33;;;2.20;99.90;;;;;;5018682;28;20061;-79
2022/11/21 11:50:49;;;;;;;42.40;28.58;;;2.30;99.90;;;;;;5001447;28;20033;-78
2022/11/21 11:53:26;;;;;;;50.72;34.28;;;2.30;99.90;;;;;;5000016;28;20522;-79
2022/11/21 11:56:10;;;;;;;53.58;35.10;;;2.40;99.90;;;;;;5015788;28;20550;-79
2022/11/21 11:58:52;;;;;;;47.13;26.95;;;2.40;99.90;;;;;;4999623;28;20117;-79
2022/11/21 12:01:26;;;;;;;42.55;26.17;;;2.40;99.90;;;;;;5015984;28;20041;-78
2022/11/21 12:04:03;;;;;;;50.63;27.95;;;2.50;99.90;;;;;;5015178;28;20053;-79
2022/11/21 12:06:54;;;;;;;44.72;28.17;;;2.60;99.90;;;;;;4998778;28;20050;-79
2022/11/21 12:09:44;;;;;;;48.30;28.15;;;2.70;99.90;;;;;;5015962;28;20034;-79
2022/11/21 12:12:22;;;;;;;47.92;26.70;;;2.80;99.90;;;;;;5016002;28;20038;-79
2022/11/21 12:18:19;;;;;;;42.80;26.88;;;3.00;99.90;;;;;;5015501;28;20042;-79
2022/11/21 12:21:03;;;;;;;44.83;25.75;;;3.00;99.90;;;;;;4998621;28;20038;-79
2022/11/21 12:23:38;;;;;;;42.85;25.23;;;3.00;99.90;;;;;;5015064;28;20038;-79
2022/11/21 12:26:34;;;;;;;45.30;25.40;;;3.00;99.90;;;;;;4999414;28;20503;-79
2022/11/21 12:29:12;;;;;;;42.13;25.48;;;3.00;99.90;;;;;;4998504;28;20519;-79
2022/11/21 12:32:14;;;;;;;57.25;27.83;;;2.90;99.90;;;;;;5015193;28;20034;-79
2022/11/21 12:35:04;;;;;;;47.22;25.83;;;2.90;99.90;;;;;;5014981;28;20448;-79
2022/11/21 12:37:57;;;;;;;47.20;27.30;;;2.90;99.90;;;;;;5015780;28;20038;-79
2022/11/21 12:40:26;;;;;;;;;;;2.90;99.90;;;;;;5016275;28;20037;-79
2022/11/21 12:43:34;;;;;;;55.17;26.40;;;2.90;99.90;;;;;;5014353;28;19921;-79
2022/11/21 12:46:26;;;;;;;61.08;28.08;;;2.90;99.90;;;;;;5014422;28;20141;-79
2022/11/21 12:55:25;;;;;;;63.03;28.52;;;3.00;99.90;;;;;;5014210;28;20057;-79
2022/11/21 12:58:19;;;;;;;68.75;29.90;;;3.00;99.90;;;;;;5014304;28;20492;-79
2022/11/21 13:01:02;;;;;;;69.65;30.17;;;3.00;99.90;;;;;;4997807;28;20038;-79
2022/11/21 13:04:00;;;;;;;61.40;29.98;;;3.10;99.90;;;;;;5014470;28;20037;-79
2022/11/21 13:06:29;;;;;;;68.30;30.42;;;3.10;99.90;;;;;;4998626;28;20116;-79
2022/11/21 13:08:58;;;;;;;82.40;31.70;;;3.20;99.90;;;;;;5013793;28;20084;-79
2022/11/21 13:14:11;;;;;;;73.53;31.27;;;3.30;99.90;;;;;;5013785;28;20080;-79
2022/11/21 13:16:43;;;;;;;71.80;31.63;;;3.40;99.90;;;;;;4997453;28;20273;-79
2022/11/21 13:19:36;;;;;;;78.70;32.78;;;3.40;99.90;;;;;;5014346;28;20427;-79
2022/11/21 13:22:01;;;;;;;72.93;31.92;;;3.50;99.90;;;;;;5014097;28;20042;-79
2022/11/21 13:24:48;;;;;;;76.93;30.90;;;3.50;99.90;;;;;;5013959;28;20046;-79
2022/11/21 13:27:26;;;;;;;68.55;30.83;;;3.50;99.90;;;;;;5014243;28;20103;-79